Time;durP1;ratioP1;P1;durP2;ratioP2;P2;SDS_P1;SDS_P2;PMS_P1;PMS_P2;Temp;Humidity;BMP_temperature;BMP_pressure;BME280_temperature;BME280_humidity;BME280_pressure;Samples;Min_cycle;Max_cycle;Signal;HPM_P1;HPM_P2
2023/12/28 00:00:20;;;;;;;4.33;1.77;;;;;231.90;258443.00;;;;5074105;28;20198;-62
2023/12/28 00:02:48;;;;;;;1.07;1.07;;;;;231.90;258443.00;;;;5074137;28;20222;-62
2023/12/28 00:05:16;;;;;;;1.90;1.70;;;;;231.90;258443.00;;;;5074589;28;20195;-62
2023/12/28 00:07:43;;;;;;;1.33;1.23;;;;;231.90;258443.00;;;;5074126;28;20312;-62
2023/12/28 00:10:11;;;;;;;2.40;2.20;;;;;231.90;258443.00;;;;5073912;28;20566;-62
2023/12/28 00:12:40;;;;;;;2.63;1.27;;;;;231.90;258443.00;;;;5073872;28;20207;-62
2023/12/28 00:15:09;;;;;;;0.80;0.80;;;;;231.90;258443.00;;;;5074227;28;20202;-62
2023/12/28 00:17:36;;;;;;;4.33;1.47;;;;;231.90;258443.00;;;;5073609;28;20720;-62
2023/12/28 00:20:04;;;;;;;1.17;1.13;;;;;231.90;258443.00;;;;5074436;28;20180;-62
2023/12/28 00:22:32;;;;;;;1.03;1.03;;;;;231.90;258443.00;;;;5073676;28;20214;-62
2023/12/28 00:24:59;;;;;;;2.87;1.87;;;;;231.90;258443.00;;;;5073684;28;20219;-62
2023/12/28 00:27:26;;;;;;;1.33;1.33;;;;;231.90;258443.00;;;;5073542;28;20219;-62
2023/12/28 00:29:55;;;;;;;1.53;1.43;;;;;231.90;258443.00;;;;5074102;28;20602;-62
2023/12/28 00:32:23;;;;;;;1.60;1.27;;;;;231.90;258443.00;;;;5073550;28;20211;-62
2023/12/28 00:34:50;;;;;;;1.33;1.33;;;;;231.90;258443.00;;;;5073666;28;20666;-62
2023/12/28 00:37:17;;;;;;;1.27;1.20;;;;;231.90;258443.00;;;;5073533;28;20194;-61
2023/12/28 00:39:46;;;;;;;1.00;1.00;;;;;231.90;258443.00;;;;5073566;28;20210;-61
2023/12/28 00:42:14;;;;;;;0.80;0.80;;;;;231.90;258443.00;;;;5073551;28;20576;-62
2023/12/28 00:44:41;;;;;;;1.37;1.30;;;;;231.90;258443.00;;;;5072976;28;20199;-62
2023/12/28 00:47:10;;;;;;;0.93;0.93;;;;;231.90;258443.00;;;;5073344;28;20211;-62
2023/12/28 00:49:40;;;;;;;0.80;0.80;;;;;231.90;258443.00;;;;5073426;28;20241;-62
2023/12/28 00:52:07;;;;;;;0.90;0.90;;;;;231.90;258443.00;;;;5073229;28;20222;-62
2023/12/28 00:54:36;;;;;;;0.90;0.90;;;;;231.90;258443.00;;;;5073493;28;20195;-62
2023/12/28 00:57:04;;;;;;;1.53;1.43;;;;;231.90;258443.00;;;;5073885;28;20281;-62
2023/12/28 00:59:31;;;;;;;1.00;1.00;;;;;231.90;258443.00;;;;5073423;28;20678;-62
2023/12/28 01:01:59;;;;;;;1.00;1.00;;;;;231.90;258443.00;;;;5073230;28;20216;-62
2023/12/28 01:04:27;;;;;;;0.73;0.73;;;;;231.90;258443.00;;;;5073286;28;20190;-62
2023/12/28 01:06:55;;;;;;;0.83;0.83;;;;;231.90;258443.00;;;;5073448;28;20597;-63
2023/12/28 01:09:22;;;;;;;0.77;0.77;;;;;231.90;258443.00;;;;5073785;28;20188;-62
2023/12/28 01:11:50;;;;;;;0.70;0.70;;;;;231.90;258443.00;;;;5073151;28;20260;-62
2023/12/28 01:14:17;;;;;;;1.23;1.13;;;;;231.90;258443.00;;;;5073196;28;20654;-62
2023/12/28 01:16:44;;;;;;;0.60;0.60;;;;;231.90;258443.00;;;;5073109;28;20202;-63
2023/12/28 01:19:12;;;;;;;3.27;1.90;;;;;231.90;258443.00;;;;5073356;28;20252;-63
2023/12/28 01:21:41;;;;;;;0.97;0.97;;;;;231.90;258443.00;;;;5073733;28;20622;-62
2023/12/28 01:24:08;;;;;;;1.10;1.07;;;;;231.90;258443.00;;;;5073252;28;20195;-62
2023/12/28 01:26:37;;;;;;;1.10;1.10;;;;;231.90;258443.00;;;;5073120;28;20215;-62
2023/12/28 01:29:04;;;;;;;1.23;1.23;;;;;231.90;258443.00;;;;5073086;28;20187;-62
2023/12/28 01:31:31;;;;;;;1.13;1.13;;;;;231.90;258443.00;;;;5073203;28;20647;-62
2023/12/28 01:33:59;;;;;;;1.23;1.13;;;;;231.90;258443.00;;;;5073396;28;20282;-62
2023/12/28 01:36:29;;;;;;;1.27;1.10;;;;;231.90;258443.00;;;;5072879;28;20187;-62
2023/12/28 01:38:58;;;;;;;7.13;0.93;;;;;231.90;258443.00;;;;5072924;28;20679;-62
2023/12/28 01:41:25;;;;;;;1.00;1.00;;;;;231.90;258443.00;;;;5072861;28;20198;-63
2023/12/28 01:43:52;;;;;;;1.47;1.37;;;;;231.90;258443.00;;;;5072834;28;20195;-63
2023/12/28 01:46:22;;;;;;;0.63;0.63;;;;;231.90;258443.00;;;;5073222;28;20678;-62
2023/12/28 01:48:51;;;;;;;1.13;1.03;;;;;231.90;258443.00;;;;5072828;28;20682;-62
2023/12/28 01:51:20;;;;;;;1.57;1.47;;;;;231.90;258443.00;;;;5072903;28;20191;-62
2023/12/28 01:53:49;;;;;;;0.63;0.63;;;;;231.90;258443.00;;;;5072959;28;20198;-62
2023/12/28 01:56:19;;;;;;;1.97;0.90;;;;;231.90;258443.00;;;;5075838;28;20198;-62
2023/12/28 01:58:50;;;;;;;1.00;1.00;;;;;231.90;258443.00;;;;5076602;28;20195;-63
2023/12/28 02:01:18;;;;;;;0.70;0.70;;;;;231.90;258443.00;;;;5076554;28;20549;-62
2023/12/28 02:03:45;;;;;;;1.00;0.90;;;;;231.90;258443.00;;;;5076446;28;20201;-62
2023/12/28 02:06:15;;;;;;;0.60;0.60;;;;;231.90;258443.00;;;;5076537;28;20191;-62
2023/12/28 02:08:43;;;;;;;0.73;0.73;;;;;231.90;258443.00;;;;5076881;28;20219;-62
2023/12/28 02:11:10;;;;;;;1.30;1.20;;;;;231.90;258443.00;;;;5076445;28;20234;-62
2023/12/28 02:13:39;;;;;;;0.90;0.90;;;;;231.90;258443.00;;;;5076279;28;20215;-62
2023/12/28 02:16:12;;;;;;;1.30;0.97;;;;;231.90;258443.00;;;;5076271;28;20269;-62
2023/12/28 02:18:45;;;;;;;0.70;0.70;;;;;231.90;258443.00;;;;5076161;28;20191;-63
2023/12/28 02:21:14;;;;;;;0.80;0.80;;;;;231.90;258443.00;;;;5076371;28;20222;-62
2023/12/28 02:23:48;;;;;;;0.80;0.80;;;;;231.90;258443.00;;;;5076081;28;20257;-62
2023/12/28 02:26:18;;;;;;;0.77;0.77;;;;;231.90;258443.00;;;;5076877;28;20270;-62
2023/12/28 02:28:46;;;;;;;0.97;0.97;;;;;231.90;258443.00;;;;5075991;28;20199;-63
2023/12/28 02:31:21;;;;;;;0.73;0.73;;;;;231.90;258443.00;;;;5075952;28;20701;-62
2023/12/28 02:33:54;;;;;;;0.80;0.80;;;;;231.90;258443.00;;;;5076071;28;20175;-62
2023/12/28 02:36:25;;;;;;;0.70;0.70;;;;;231.90;258443.00;;;;5075995;28;20186;-62
2023/12/28 02:38:55;;;;;;;0.70;0.70;;;;;231.90;258443.00;;;;5076243;28;20184;-62
2023/12/28 02:41:25;;;;;;;0.60;0.60;;;;;231.90;258443.00;;;;5075767;28;20199;-62
2023/12/28 02:43:52;;;;;;;1.37;0.93;;;;;231.90;258443.00;;;;5075860;28;20192;-62
2023/12/28 02:46:20;;;;;;;0.70;0.70;;;;;231.90;258443.00;;;;5075967;28;20187;-62
2023/12/28 02:48:47;;;;;;;0.60;0.60;;;;;231.90;258443.00;;;;5076139;28;20215;-63
2023/12/28 02:51:16;;;;;;;0.80;0.80;;;;;231.90;258443.00;;;;5075963;28;20199;-62
2023/12/28 02:53:43;;;;;;;0.90;0.90;;;;;231.90;258443.00;;;;5075926;28;20202;-62
2023/12/28 02:56:10;;;;;;;0.80;0.80;;;;;231.90;258443.00;;;;5075753;28;20191;-62
2023/12/28 02:58:39;;;;;;;1.43;1.37;;;;;231.90;258443.00;;;;5075600;28;20187;-62
2023/12/28 03:01:07;;;;;;;0.60;0.60;;;;;231.90;258443.00;;;;5075433;28;20194;-62
2023/12/28 03:03:34;;;;;;;0.70;0.70;;;;;231.90;258443.00;;;;5075472;28;20301;-62
2023/12/28 03:06:02;;;;;;;0.87;0.87;;;;;231.90;258443.00;;;;5075606;28;20188;-62
2023/12/28 03:08:29;;;;;;;0.80;0.80;;;;;231.90;258443.00;;;;5074583;28;20219;-62
2023/12/28 03:10:56;;;;;;;0.77;0.77;;;;;231.90;258443.00;;;;5075471;28;20195;-62
2023/12/28 03:13:24;;;;;;;0.70;0.70;;;;;231.90;258443.00;;;;5075236;28;20687;-62
2023/12/28 03:15:53;;;;;;;0.80;0.80;;;;;231.90;258443.00;;;;5075191;28;20191;-62
2023/12/28 03:18:20;;;;;;;0.90;0.90;;;;;231.90;258443.00;;;;5075268;28;20195;-62
2023/12/28 03:20:47;;;;;;;0.60;0.60;;;;;231.90;258443.00;;;;5075289;28;20264;-62
2023/12/28 03:23:14;;;;;;;1.07;1.03;;;;;231.90;258443.00;;;;5075098;28;20310;-62
2023/12/28 03:25:42;;;;;;;0.63;0.63;;;;;231.90;258443.00;;;;5075693;28;20517;-62
2023/12/28 03:28:09;;;;;;;0.97;0.97;;;;;231.90;258443.00;;;;5074929;28;20219;-62
2023/12/28 03:30:36;;;;;;;0.70;0.70;;;;;231.90;258443.00;;;;5075009;28;20199;-62
2023/12/28 03:33:06;;;;;;;0.93;0.93;;;;;231.90;258443.00;;;;5074972;28;20265;-62
2023/12/28 03:35:33;;;;;;;0.63;0.63;;;;;231.90;258443.00;;;;5074770;28;20198;-62
2023/12/28 03:38:01;;;;;;;0.60;0.60;;;;;231.90;258443.00;;;;5075135;28;20184;-62
2023/12/28 03:40:29;;;;;;;0.83;0.83;;;;;231.90;258443.00;;;;5074821;28;20262;-62
2023/12/28 03:42:56;;;;;;;0.70;0.70;;;;;231.90;258443.00;;;;5074565;28;20222;-62
2023/12/28 03:45:24;;;;;;;1.17;1.17;;;;;231.90;258443.00;;;;5074582;28;20548;-62
2023/12/28 03:47:51;;;;;;;0.67;0.67;;;;;231.90;258443.00;;;;5074499;28;20220;-62
2023/12/28 03:50:20;;;;;;;0.70;0.70;;;;;231.90;258443.00;;;;5074971;28;20188;-62
2023/12/28 03:52:47;;;;;;;0.70;0.70;;;;;231.90;258443.00;;;;5074401;28;20613;-62
2023/12/28 03:55:15;;;;;;;1.23;0.80;;;;;231.90;258443.00;;;;5074552;28;20195;-62
2023/12/28 03:57:42;;;;;;;0.97;0.97;;;;;231.90;258443.00;;;;5074520;28;20190;-62
2023/12/28 04:00:10;;;;;;;0.53;0.53;;;;;231.90;258443.00;;;;5074487;28;20198;-62
2023/12/28 04:02:38;;;;;;;1.00;1.00;;;;;231.90;258443.00;;;;5074406;28;20214;-61
2023/12/28 04:05:07;;;;;;;0.87;0.87;;;;;231.90;258443.00;;;;5074153;28;20196;-61
2023/12/28 04:07:35;;;;;;;0.80;0.80;;;;;231.90;258443.00;;;;5074316;28;20605;-61
2023/12/28 04:10:03;;;;;;;1.17;1.17;;;;;231.90;258443.00;;;;5074836;28;20199;-62
2023/12/28 04:12:30;;;;;;;0.97;0.97;;;;;231.90;258443.00;;;;5074630;28;20208;-62
2023/12/28 04:14:57;;;;;;;0.80;0.80;;;;;231.90;258443.00;;;;5074091;28;20257;-62
2023/12/28 04:17:25;;;;;;;0.60;0.60;;;;;231.90;258443.00;;;;5074025;28;20192;-62
2023/12/28 04:19:52;;;;;;;0.80;0.80;;;;;231.90;258443.00;;;;5073939;28;20237;-62
2023/12/28 04:22:19;;;;;;;0.73;0.73;;;;;231.90;258443.00;;;;5073852;28;20211;-62
2023/12/28 04:24:48;;;;;;;0.80;0.80;;;;;231.90;258443.00;;;;5073960;28;20660;-62
2023/12/28 04:27:16;;;;;;;0.60;0.60;;;;;231.90;258443.00;;;;5073986;28;20670;-62
2023/12/28 04:29:43;;;;;;;1.37;1.27;;;;;231.90;258443.00;;;;5073718;28;20194;-62
2023/12/28 04:32:11;;;;;;;0.97;0.97;;;;;231.90;258443.00;;;;5073696;28;20694;-62
2023/12/28 04:34:38;;;;;;;0.80;0.80;;;;;231.90;258443.00;;;;5074000;28;20248;-62
2023/12/28 04:37:05;;;;;;;0.70;0.70;;;;;231.90;258443.00;;;;5073895;28;20284;-62
2023/12/28 04:39:33;;;;;;;0.90;0.90;;;;;231.90;258443.00;;;;5073784;28;20210;-62
2023/12/28 04:42:02;;;;;;;0.63;0.63;;;;;231.90;258443.00;;;;5073982;28;20247;-62
2023/12/28 04:44:29;;;;;;;0.60;0.60;;;;;231.90;258443.00;;;;5073781;28;20192;-62
2023/12/28 04:46:56;;;;;;;1.00;1.00;;;;;231.90;258443.00;;;;5073583;28;20221;-63
2023/12/28 04:49:24;;;;;;;0.90;0.90;;;;;231.90;258443.00;;;;5073685;28;20237;-62
2023/12/28 04:51:51;;;;;;;0.67;0.67;;;;;231.90;258443.00;;;;5073359;28;20691;-62
2023/12/28 04:54:19;;;;;;;0.70;0.70;;;;;231.90;258443.00;;;;5073454;28;20196;-61
2023/12/28 04:56:46;;;;;;;0.87;0.87;;;;;231.90;258443.00;;;;5073385;28;20669;-62
2023/12/28 04:59:15;;;;;;;0.67;0.67;;;;;231.90;258443.00;;;;5073438;28;20198;-62
2023/12/28 05:01:42;;;;;;;0.73;0.73;;;;;231.90;258443.00;;;;5073266;28;20230;-62
2023/12/28 05:04:10;;;;;;;0.60;0.60;;;;;231.90;258443.00;;;;5073185;28;20641;-62
2023/12/28 05:06:37;;;;;;;0.80;0.80;;;;;231.90;258443.00;;;;5073430;28;20203;-62
2023/12/28 05:09:05;;;;;;;0.70;0.70;;;;;231.90;258443.00;;;;5073190;28;20219;-62
2023/12/28 05:11:33;;;;;;;0.80;0.80;;;;;231.90;258443.00;;;;5073472;28;20206;-62
2023/12/28 05:14:00;;;;;;;0.80;0.80;;;;;231.90;258443.00;;;;5073571;28;20199;-62
2023/12/28 05:16:29;;;;;;;0.60;0.60;;;;;231.90;258443.00;;;;5073175;28;20208;-63
2023/12/28 05:18:56;;;;;;;0.70;0.70;;;;;231.90;258443.00;;;;5073039;28;20198;-63
2023/12/28 05:21:23;;;;;;;0.67;0.67;;;;;231.90;258443.00;;;;5073104;28;20187;-61
2023/12/28 05:23:51;;;;;;;0.67;0.67;;;;;231.90;258443.00;;;;5073136;28;20593;-63
2023/12/28 05:26:18;;;;;;;0.70;0.70;;;;;231.90;258443.00;;;;5073044;28;20654;-63
2023/12/28 05:28:45;;;;;;;0.90;0.90;;;;;231.90;258443.00;;;;5072849;28;20211;-63
2023/12/28 05:31:13;;;;;;;0.57;0.57;;;;;231.90;258443.00;;;;5078491;28;20191;-63
2023/12/28 05:33:42;;;;;;;0.80;0.80;;;;;231.90;258443.00;;;;5078330;28;20237;-62
2023/12/28 05:36:10;;;;;;;0.80;0.80;;;;;231.90;258443.00;;;;5079541;28;20195;-62
2023/12/28 05:38:37;;;;;;;1.57;0.90;;;;;231.90;258443.00;;;;5079605;28;20613;-62
2023/12/28 05:41:05;;;;;;;0.70;0.70;;;;;231.90;258443.00;;;;5079484;28;20191;-62
2023/12/28 05:43:32;;;;;;;0.70;0.70;;;;;231.90;258443.00;;;;5079433;28;20218;-63
2023/12/28 05:45:59;;;;;;;0.60;0.60;;;;;231.90;258443.00;;;;5079851;28;20195;-62
2023/12/28 05:48:27;;;;;;;0.80;0.80;;;;;231.90;258443.00;;;;5079442;28;20211;-62
2023/12/28 05:50:55;;;;;;;0.60;0.60;;;;;231.90;258443.00;;;;5079487;28;20183;-63
2023/12/28 05:53:23;;;;;;;0.90;0.90;;;;;231.90;258443.00;;;;5079440;28;20211;-62
2023/12/28 05:55:50;;;;;;;0.83;0.83;;;;;231.90;258443.00;;;;5079713;28;20195;-62
2023/12/28 05:58:20;;;;;;;0.60;0.60;;;;;231.90;258443.00;;;;5079558;28;20219;-62
2023/12/28 06:00:48;;;;;;;1.30;1.20;;;;;231.90;258443.00;;;;5079427;28;20195;-62
2023/12/28 06:03:15;;;;;;;0.70;0.70;;;;;231.90;258443.00;;;;5078108;28;20219;-63
2023/12/28 06:05:43;;;;;;;1.10;1.10;;;;;231.90;258443.00;;;;5079351;28;20599;-62
2023/12/28 06:08:13;;;;;;;1.07;0.90;;;;;231.90;258443.00;;;;5079415;28;20212;-63
2023/12/28 06:10:40;;;;;;;0.90;0.90;;;;;231.90;258443.00;;;;5079369;28;20274;-62
2023/12/28 06:13:08;;;;;;;0.93;0.93;;;;;231.90;258443.00;;;;5079264;28;20251;-62
2023/12/28 06:15:35;;;;;;;0.83;0.80;;;;;231.90;258443.00;;;;5079290;28;20187;-63
2023/12/28 06:18:04;;;;;;;0.70;0.70;;;;;231.90;258443.00;;;;5079149;28;20214;-63
2023/12/28 06:20:31;;;;;;;0.67;0.67;;;;;231.90;258443.00;;;;5079107;28;20278;-62
2023/12/28 06:22:58;;;;;;;0.80;0.80;;;;;231.90;258443.00;;;;5079845;28;20218;-62
2023/12/28 06:25:27;;;;;;;0.60;0.60;;;;;231.90;258443.00;;;;5077893;28;20198;-62
2023/12/28 06:27:55;;;;;;;1.33;0.97;;;;;231.90;258443.00;;;;5078930;28;20556;-63
2023/12/28 06:30:22;;;;;;;0.60;0.60;;;;;231.90;258443.00;;;;5079139;28;20187;-62
2023/12/28 06:32:49;;;;;;;0.60;0.60;;;;;231.90;258443.00;;;;5079522;28;20222;-62
2023/12/28 06:35:17;;;;;;;0.80;0.80;;;;;231.90;258443.00;;;;5079953;28;20548;-62
2023/12/28 06:37:44;;;;;;;0.70;0.70;;;;;231.90;258443.00;;;;5079660;28;20203;-62
2023/12/28 06:40:13;;;;;;;0.50;0.50;;;;;231.90;258443.00;;;;5079405;28;20191;-62
2023/12/28 06:42:43;;;;;;;0.70;0.70;;;;;231.90;258443.00;;;;5075787;28;20286;-63
2023/12/28 06:45:11;;;;;;;0.87;0.77;;;;;231.90;258443.00;;;;5075992;28;20194;-62
2023/12/28 06:47:38;;;;;;;1.20;1.00;;;;;231.90;258443.00;;;;5077156;28;20278;-62
2023/12/28 06:50:07;;;;;;;0.77;0.77;;;;;231.90;258443.00;;;;5075753;28;20670;-62
2023/12/28 06:52:34;;;;;;;0.87;0.87;;;;;231.90;258443.00;;;;5076370;28;20214;-62
2023/12/28 06:55:02;;;;;;;0.70;0.70;;;;;231.90;258443.00;;;;5075444;28;20206;-62
2023/12/28 06:57:29;;;;;;;1.23;1.23;;;;;231.90;258443.00;;;;5076239;28;20226;-62
2023/12/28 07:00:01;;;;;;;0.60;0.60;;;;;231.90;258443.00;;;;5075931;28;20187;-62
2023/12/28 07:02:29;;;;;;;1.07;0.97;;;;;231.90;258443.00;;;;5076293;28;20262;-62
2023/12/28 07:04:56;;;;;;;0.70;0.70;;;;;231.90;258443.00;;;;5076889;28;20207;-62
2023/12/28 07:07:23;;;;;;;0.60;0.60;;;;;231.90;258443.00;;;;5076245;28;20191;-62
2023/12/28 07:09:51;;;;;;;0.83;0.83;;;;;231.90;258443.00;;;;5075571;28;20211;-62
2023/12/28 07:12:20;;;;;;;0.60;0.60;;;;;231.90;258443.00;;;;5075643;28;20696;-62
2023/12/28 07:14:47;;;;;;;1.17;1.03;;;;;231.90;258443.00;;;;5075446;28;20196;-62
2023/12/28 07:17:19;;;;;;;1.00;1.00;;;;;231.90;258443.00;;;;5075508;28;20199;-63
2023/12/28 07:19:46;;;;;;;0.60;0.60;;;;;231.90;258443.00;;;;5075095;28;20240;-63
2023/12/28 07:22:14;;;;;;;0.50;0.50;;;;;231.90;258443.00;;;;5075092;28;20214;-63
2023/12/28 07:24:41;;;;;;;0.70;0.70;;;;;231.90;258443.00;;;;5075074;28;20183;-63
2023/12/28 07:27:09;;;;;;;0.63;0.63;;;;;231.90;258443.00;;;;5075068;28;20203;-63
2023/12/28 07:29:36;;;;;;;0.60;0.60;;;;;231.90;258443.00;;;;5075095;28;20207;-62
2023/12/28 07:32:04;;;;;;;0.80;0.80;;;;;231.90;258443.00;;;;5074928;28;20235;-63
2023/12/28 07:34:32;;;;;;;0.70;0.70;;;;;231.90;258443.00;;;;5075003;28;20187;-63
2023/12/28 07:37:00;;;;;;;0.70;0.70;;;;;231.90;258443.00;;;;5075133;28;20197;-62
2023/12/28 07:39:27;;;;;;;0.73;0.73;;;;;231.90;258443.00;;;;5075041;28;20270;-62
2023/12/28 07:41:55;;;;;;;0.70;0.70;;;;;231.90;258443.00;;;;5074709;28;20212;-62
2023/12/28 07:44:22;;;;;;;0.70;0.70;;;;;231.90;258443.00;;;;5074758;28;20609;-62
2023/12/28 07:46:49;;;;;;;0.60;0.60;;;;;231.90;258443.00;;;;5074891;28;20184;-63
2023/12/28 07:49:17;;;;;;;0.60;0.60;;;;;231.90;258443.00;;;;5073223;28;20226;-63
2023/12/28 07:51:46;;;;;;;0.70;0.70;;;;;231.90;258443.00;;;;5074810;28;20215;-63
2023/12/28 07:54:13;;;;;;;0.70;0.70;;;;;231.90;258443.00;;;;5074776;28;20191;-63
2023/12/28 07:56:41;;;;;;;0.90;0.90;;;;;231.90;258443.00;;;;5074595;28;20191;-63
2023/12/28 07:59:09;;;;;;;1.27;1.27;;;;;231.90;258443.00;;;;5074441;28;20747;-63
2023/12/28 08:01:36;;;;;;;2.70;1.73;;;;;231.90;258443.00;;;;5074502;28;20749;-63
2023/12/28 08:04:03;;;;;;;0.77;0.77;;;;;231.90;258443.00;;;;5072980;28;20659;-63
2023/12/28 08:06:32;;;;;;;0.80;0.80;;;;;231.90;258443.00;;;;5074261;28;20528;-63
2023/12/28 08:09:01;;;;;;;0.80;0.80;;;;;231.90;258443.00;;;;5074166;28;20710;-61
2023/12/28 08:11:28;;;;;;;0.83;0.83;;;;;231.90;258443.00;;;;5074232;28;20643;-61
2023/12/28 08:13:56;;;;;;;0.50;0.50;;;;;231.90;258443.00;;;;5074616;28;20195;-62
2023/12/28 08:16:23;;;;;;;0.63;0.63;;;;;231.90;258443.00;;;;5073959;28;20199;-62
2023/12/28 08:18:51;;;;;;;1.23;1.23;;;;;231.90;258443.00;;;;5072768;28;20209;-62
2023/12/28 08:21:18;;;;;;;1.43;0.87;;;;;231.90;258443.00;;;;5073822;28;20187;-62
2023/12/28 08:23:45;;;;;;;0.50;0.50;;;;;231.90;258443.00;;;;5073993;28;20659;-62
2023/12/28 08:26:14;;;;;;;1.80;0.80;;;;;231.90;258443.00;;;;5073686;28;20274;-62
2023/12/28 08:28:42;;;;;;;1.47;1.37;;;;;231.90;258443.00;;;;5074096;28;20229;-62
2023/12/28 08:31:09;;;;;;;5.13;1.20;;;;;231.90;258443.00;;;;5073855;28;20222;-62
2023/12/28 08:33:38;;;;;;;0.90;0.90;;;;;231.90;258443.00;;;;5073795;28;20219;-62
2023/12/28 08:36:07;;;;;;;0.80;0.80;;;;;231.90;258443.00;;;;5074121;28;20192;-62
2023/12/28 08:38:34;;;;;;;0.77;0.77;;;;;231.90;258443.00;;;;5074831;28;20206;-62
2023/12/28 08:41:03;;;;;;;1.13;1.13;;;;;231.90;258443.00;;;;5074378;28;20198;-62
2023/12/28 08:43:31;;;;;;;0.60;0.60;;;;;231.90;258443.00;;;;5074634;28;20212;-62
2023/12/28 08:45:59;;;;;;;1.47;0.80;;;;;231.90;258443.00;;;;5074643;28;20693;-62
2023/12/28 08:48:26;;;;;;;1.50;1.20;;;;;231.90;258443.00;;;;5073841;28;20191;-62
2023/12/28 08:50:54;;;;;;;0.73;0.73;;;;;231.90;258443.00;;;;5073942;28;20203;-62
2023/12/28 08:53:21;;;;;;;0.80;0.80;;;;;231.90;258443.00;;;;5073611;28;20214;-62
2023/12/28 08:55:49;;;;;;;0.80;0.80;;;;;231.90;258443.00;;;;5073307;28;20195;-62
2023/12/28 08:58:16;;;;;;;0.73;0.73;;;;;231.90;258443.00;;;;5073420;28;20195;-62
2023/12/28 09:00:46;;;;;;;0.70;0.70;;;;;231.90;258443.00;;;;5073414;28;20527;-62
2023/12/28 09:03:14;;;;;;;0.90;0.90;;;;;231.90;258443.00;;;;5073680;28;20690;-62
2023/12/28 09:05:41;;;;;;;0.60;0.60;;;;;231.90;258443.00;;;;5072821;28;20183;-62
2023/12/28 09:08:09;;;;;;;0.60;0.60;;;;;231.90;258443.00;;;;5073634;28;20200;-62
2023/12/28 09:10:36;;;;;;;0.80;0.80;;;;;231.90;258443.00;;;;5073153;28;20215;-62
2023/12/28 09:13:05;;;;;;;1.30;1.23;;;;;231.90;258443.00;;;;5073151;28;20290;-62
2023/12/28 09:15:33;;;;;;;1.23;1.13;;;;;231.90;258443.00;;;;5073451;28;20214;-62
2023/12/28 09:18:02;;;;;;;0.80;0.80;;;;;231.90;258443.00;;;;5073046;28;20195;-62
2023/12/28 09:20:29;;;;;;;1.50;0.90;;;;;231.90;258443.00;;;;5073204;28;20714;-62
2023/12/28 09:22:56;;;;;;;0.67;0.67;;;;;231.90;258443.00;;;;5073348;28;20218;-62
2023/12/28 09:25:24;;;;;;;0.70;0.70;;;;;231.90;258443.00;;;;5073457;28;20219;-63
2023/12/28 09:27:51;;;;;;;0.50;0.50;;;;;231.90;258443.00;;;;5072960;28;20229;-62
2023/12/28 09:30:19;;;;;;;0.60;0.60;;;;;231.90;258443.00;;;;5073000;28;20215;-62
2023/12/28 09:32:46;;;;;;;0.80;0.80;;;;;231.90;258443.00;;;;5072977;28;20229;-62
2023/12/28 09:35:15;;;;;;;0.60;0.60;;;;;231.90;258443.00;;;;5072881;28;20191;-62
2023/12/28 09:37:43;;;;;;;1.17;1.10;;;;;231.90;258443.00;;;;5073790;28;20654;-62
2023/12/28 09:40:11;;;;;;;0.60;0.60;;;;;231.90;258443.00;;;;5072970;28;20194;-62
2023/12/28 09:42:49;;;;;;;0.87;0.87;;;;;231.90;258443.00;;;;5072772;28;20222;-62
2023/12/28 09:45:17;;;;;;;0.70;0.70;;;;;231.90;258443.00;;;;5073097;28;20585;-62
2023/12/28 09:47:45;;;;;;;0.50;0.50;;;;;231.90;258443.00;;;;5072803;28;20196;-61
2023/12/28 09:50:18;;;;;;;0.93;0.90;;;;;231.90;258443.00;;;;5072691;28;20223;-61
2023/12/28 09:52:45;;;;;;;0.80;0.80;;;;;231.90;258443.00;;;;5072925;28;20215;-61
2023/12/28 09:55:13;;;;;;;0.73;0.73;;;;;231.90;258443.00;;;;5072842;28;20203;-61
2023/12/28 09:57:43;;;;;;;0.80;0.80;;;;;231.90;258443.00;;;;5072586;28;20192;-62
2023/12/28 10:00:13;;;;;;;3.60;1.10;;;;;231.90;258443.00;;;;5072671;28;20191;-62
2023/12/28 10:02:44;;;;;;;1.00;1.00;;;;;231.90;258443.00;;;;5072964;28;20208;-62
2023/12/28 10:05:14;;;;;;;0.60;0.60;;;;;231.90;258443.00;;;;5073798;28;20180;-62
2023/12/28 10:07:43;;;;;;;0.70;0.70;;;;;231.90;258443.00;;;;5073656;28;20180;-62
2023/12/28 10:10:11;;;;;;;0.83;0.83;;;;;231.90;258443.00;;;;5073026;28;20222;-62
2023/12/28 10:12:39;;;;;;;0.90;0.90;;;;;231.90;258443.00;;;;5073358;28;20217;-61
2023/12/28 10:15:07;;;;;;;0.60;0.60;;;;;231.90;258443.00;;;;5072961;28;20365;-62
2023/12/28 10:17:35;;;;;;;0.87;0.87;;;;;231.90;258443.00;;;;5075800;28;20215;-62
2023/12/28 10:20:04;;;;;;;0.70;0.70;;;;;231.90;258443.00;;;;5077235;28;20180;-62
2023/12/28 10:22:32;;;;;;;0.97;0.97;;;;;231.90;258443.00;;;;5076374;28;20214;-62
2023/12/28 10:25:03;;;;;;;0.70;0.70;;;;;231.90;258443.00;;;;5076312;28;20245;-62
2023/12/28 10:27:31;;;;;;;0.60;0.60;;;;;231.90;258443.00;;;;5076461;28;20179;-62
2023/12/28 10:29:58;;;;;;;0.73;0.73;;;;;231.90;258443.00;;;;5075970;28;20207;-62
2023/12/28 10:32:26;;;;;;;1.23;1.17;;;;;231.90;258443.00;;;;5075937;28;20211;-62
2023/12/28 10:34:54;;;;;;;0.70;0.70;;;;;231.90;258443.00;;;;5075951;28;20198;-62
2023/12/28 10:37:22;;;;;;;0.70;0.70;;;;;231.90;258443.00;;;;5076361;28;20191;-63
2023/12/28 10:39:55;;;;;;;0.80;0.80;;;;;231.90;258443.00;;;;5076324;28;20196;-62
2023/12/28 10:42:30;;;;;;;0.70;0.70;;;;;231.90;258443.00;;;;5076283;28;20293;-62
2023/12/28 10:45:05;;;;;;;1.00;1.00;;;;;231.90;258443.00;;;;5076279;28;20266;-62
2023/12/28 10:47:35;;;;;;;0.73;0.73;;;;;231.90;258443.00;;;;5076467;28;20526;-62
2023/12/28 10:50:05;;;;;;;0.70;0.70;;;;;231.90;258443.00;;;;5075885;28;20223;-62
2023/12/28 10:52:34;;;;;;;0.70;0.70;;;;;231.90;258443.00;;;;5076152;28;20557;-62
2023/12/28 10:55:22;;;;;;;0.70;0.70;;;;;231.90;258443.00;;;;5076062;28;20187;-62
2023/12/28 10:58:00;;;;;;;1.00;1.00;;;;;231.90;258443.00;;;;5075940;28;20646;-62
2023/12/28 11:00:32;;;;;;;0.70;0.70;;;;;231.90;258443.00;;;;5074335;28;20188;-62
2023/12/28 11:03:04;;;;;;;0.70;0.70;;;;;231.90;258443.00;;;;5075714;28;20223;-63
2023/12/28 11:05:33;;;;;;;0.70;0.70;;;;;231.90;258443.00;;;;5075636;28;20175;-63
2023/12/28 11:08:02;;;;;;;1.00;1.00;;;;;231.90;258443.00;;;;5075487;28;20206;-63
2023/12/28 11:10:33;;;;;;;0.70;0.70;;;;;231.90;258443.00;;;;5074163;28;20695;-63
2023/12/28 11:13:03;;;;;;;1.07;0.97;;;;;231.90;258443.00;;;;5075296;28;20625;-63
2023/12/28 11:15:32;;;;;;;0.80;0.80;;;;;231.90;258443.00;;;;5075235;28;20192;-63
2023/12/28 11:18:00;;;;;;;0.60;0.60;;;;;231.90;258443.00;;;;5075146;28;20203;-63
2023/12/28 11:20:28;;;;;;;1.70;1.60;;;;;231.90;258443.00;;;;5075526;28;20187;-63
2023/12/28 11:22:56;;;;;;;0.60;0.60;;;;;231.90;258443.00;;;;5075479;28;20761;-63
2023/12/28 11:25:24;;;;;;;0.73;0.73;;;;;231.90;258443.00;;;;5073895;28;20199;-63
2023/12/28 11:27:51;;;;;;;0.73;0.73;;;;;231.90;258443.00;;;;5074602;28;20192;-62
2023/12/28 11:30:20;;;;;;;6.63;0.80;;;;;231.90;258443.00;;;;5075243;28;20548;-63
2023/12/28 11:32:47;;;;;;;1.40;1.30;;;;;231.90;258443.00;;;;5075164;28;20690;-63
2023/12/28 11:35:17;;;;;;;0.60;0.60;;;;;231.90;258443.00;;;;5075074;28;20685;-63
2023/12/28 11:37:48;;;;;;;0.80;0.80;;;;;231.90;258443.00;;;;5074843;28;20556;-63
2023/12/28 11:40:19;;;;;;;0.60;0.60;;;;;231.90;258443.00;;;;5075226;28;20643;-63
2023/12/28 11:42:51;;;;;;;1.20;1.10;;;;;231.90;258443.00;;;;5076012;28;20233;-63
2023/12/28 11:45:20;;;;;;;1.33;1.23;;;;;231.90;258443.00;;;;5076583;28;20199;-63
2023/12/28 11:47:48;;;;;;;0.80;0.80;;;;;231.90;258443.00;;;;5076027;28;20191;-63
2023/12/28 11:50:15;;;;;;;0.60;0.60;;;;;231.90;258443.00;;;;5074654;28;20215;-61
2023/12/28 11:52:43;;;;;;;0.70;0.70;;;;;231.90;258443.00;;;;5072930;28;20588;-62
2023/12/28 11:55:11;;;;;;;0.83;0.83;;;;;231.90;258443.00;;;;5074406;28;20192;-61
2023/12/28 11:57:39;;;;;;;0.60;0.60;;;;;231.90;258443.00;;;;5074256;28;20192;-62
2023/12/28 12:00:08;;;;;;;1.07;1.07;;;;;231.90;258443.00;;;;5074185;28;20269;-61
2023/12/28 12:02:37;;;;;;;0.70;0.70;;;;;231.90;258443.00;;;;5074359;28;20215;-62